createdAt,value
2018-09-29T00:02:15.572Z,13.08
2018-09-29T00:04:44.670Z,13.13
2018-09-29T00:07:13.699Z,13.05
2018-09-29T00:09:42.858Z,13.06
2018-09-29T00:12:11.941Z,13.04
2018-09-29T00:14:40.921Z,12.87
2018-09-29T00:17:09.879Z,12.94
2018-09-29T00:19:38.887Z,12.91
2018-09-29T00:22:07.888Z,12.96
2018-09-29T00:24:36.879Z,12.95
2018-09-29T00:27:05.982Z,12.99
2018-09-29T00:29:34.910Z,12.79
2018-09-29T00:32:04.127Z,12.64
2018-09-29T00:34:33.191Z,12.76
2018-09-29T00:37:02.238Z,12.83
2018-09-29T00:39:31.247Z,12.87
2018-09-29T00:42:00.224Z,12.92
2018-09-29T00:44:29.220Z,12.94
2018-09-29T00:46:58.328Z,12.84
2018-09-29T00:49:27.387Z,12.92
2018-09-29T00:51:56.355Z,12.71
2018-09-29T00:54:25.393Z,12.81
2018-09-29T00:56:54.391Z,12.89
2018-09-29T00:59:23.429Z,12.79
2018-09-29T01:01:52.468Z,12.77
2018-09-29T01:04:21.469Z,12.70
2018-09-29T01:06:50.616Z,12.65
2018-09-29T01:09:19.593Z,12.65
2018-09-29T01:11:48.615Z,12.74
2018-09-29T01:14:17.657Z,12.71
2018-09-29T01:16:46.723Z,12.72
2018-09-29T01:19:15.696Z,12.70
2018-09-29T01:21:44.741Z,12.78
2018-09-29T01:24:13.750Z,12.83
2018-09-29T01:26:42.841Z,12.86
2018-09-29T01:29:11.879Z,13.00
2018-09-29T01:31:41.066Z,13.14
2018-09-29T01:34:10.262Z,13.08
2018-09-29T01:36:39.414Z,13.09
2018-09-29T01:39:10.090Z,13.08
2018-09-29T01:41:39.328Z,13.14
2018-09-29T01:44:08.809Z,13.01
2018-09-29T01:46:37.848Z,13.03
2018-09-29T01:49:06.987Z,13.06
2018-09-29T01:51:36.061Z,13.04
2018-09-29T01:54:05.079Z,13.07
2018-09-29T01:56:34.068Z,13.01
2018-09-29T01:59:03.917Z,12.92
2018-09-29T02:01:32.898Z,12.97
2018-09-29T02:04:02.033Z,12.95
2018-09-29T02:06:31.418Z,12.94
2018-09-29T02:09:00.510Z,12.92
2018-09-29T02:11:29.533Z,12.85
2018-09-29T02:13:58.609Z,12.76
2018-09-29T02:16:27.595Z,12.64
2018-09-29T02:18:56.703Z,12.64
2018-09-29T02:21:25.803Z,12.58
2018-09-29T02:23:54.857Z,12.55
2018-09-29T02:26:23.829Z,12.47
2018-09-29T02:28:52.882Z,12.38
2018-09-29T02:31:21.975Z,12.42
2018-09-29T02:33:51.011Z,12.29
2018-09-29T02:36:20.126Z,12.31
2018-09-29T02:38:49.093Z,12.26
2018-09-29T02:41:18.097Z,12.26
2018-09-29T02:43:48.173Z,12.12
2018-09-29T02:46:17.578Z,12.18
2018-09-29T02:48:46.801Z,12.20
2018-09-29T02:51:16.169Z,12.11
2018-09-29T02:53:45.492Z,12.08
2018-09-29T02:56:14.722Z,12.08
2018-09-29T02:58:44.044Z,12.06
2018-09-29T03:01:14.599Z,11.99
2018-09-29T03:03:43.998Z,12.00
2018-09-29T03:06:13.388Z,11.95
2018-09-29T03:08:43.113Z,11.93
2018-09-29T03:11:12.433Z,11.98
2018-09-29T03:13:41.811Z,11.94
2018-09-29T03:16:11.056Z,11.96
2018-09-29T03:18:40.414Z,11.92
2018-09-29T03:21:09.670Z,11.92
2018-09-29T03:23:38.999Z,11.95
2018-09-29T03:26:08.326Z,11.96
2018-09-29T03:28:37.761Z,11.89
2018-09-29T03:31:07.607Z,11.92
2018-09-29T03:33:37.001Z,11.87
2018-09-29T03:36:06.491Z,11.86
2018-09-29T03:38:35.965Z,11.88
2018-09-29T03:41:05.324Z,11.72
2018-09-29T03:43:34.880Z,11.72
2018-09-29T03:46:04.433Z,11.70
2018-09-29T03:48:33.947Z,11.67
2018-09-29T03:51:03.466Z,11.67
2018-09-29T03:53:33.022Z,11.55
2018-09-29T03:56:02.409Z,11.62
2018-09-29T03:58:31.773Z,11.56
2018-09-29T04:01:01.099Z,11.53
2018-09-29T04:03:30.672Z,11.52
2018-09-29T04:06:00.574Z,11.60
2018-09-29T04:08:29.907Z,11.51
2018-09-29T04:10:59.230Z,11.53
2018-09-29T04:13:28.497Z,11.60
2018-09-29T04:15:57.844Z,11.56
2018-09-29T04:18:27.035Z,11.49
2018-09-29T04:20:56.096Z,11.55
2018-09-29T04:23:25.219Z,11.53
2018-09-29T04:25:54.463Z,11.53
2018-09-29T04:28:23.931Z,11.45
2018-09-29T04:30:53.005Z,11.43
2018-09-29T04:33:24.159Z,11.47
2018-09-29T04:35:53.654Z,11.35
2018-09-29T04:38:22.687Z,11.35
2018-09-29T04:40:51.920Z,11.37
2018-09-29T04:43:21.413Z,11.35
2018-09-29T04:45:50.546Z,11.26
2018-09-29T04:48:20.711Z,11.31
2018-09-29T04:50:50.166Z,11.35
2018-09-29T04:53:19.630Z,11.25
2018-09-29T04:55:49.158Z,11.27
2018-09-29T04:58:18.611Z,11.33
2018-09-29T05:00:47.956Z,11.23
2018-09-29T05:03:17.294Z,11.15
2018-09-29T05:05:46.610Z,11.24
2018-09-29T05:08:16.058Z,11.33
2018-09-29T05:10:45.545Z,11.29
2018-09-29T05:13:15.008Z,11.13
2018-09-29T05:15:44.309Z,11.19
2018-09-29T05:18:13.622Z,11.17
2018-09-29T05:20:42.894Z,11.23
2018-09-29T05:23:12.289Z,11.34
2018-09-29T05:25:41.332Z,11.10
2018-09-29T05:28:10.433Z,11.12
2018-09-29T05:30:39.592Z,11.08
2018-09-29T05:33:08.661Z,11.16
2018-09-29T05:35:37.676Z,11.19
2018-09-29T05:38:06.971Z,11.03
2018-09-29T05:40:36.094Z,11.04
2018-09-29T05:43:05.267Z,10.96
2018-09-29T05:45:34.412Z,10.92
2018-09-29T05:48:03.604Z,11.05
2018-09-29T05:50:32.617Z,11.03
2018-09-29T05:53:01.703Z,11.16
2018-09-29T05:55:30.730Z,11.15
2018-09-29T05:57:59.824Z,11.16
2018-09-29T06:00:29.107Z,11.19
2018-09-29T06:02:58.580Z,11.15
2018-09-29T06:05:28.237Z,11.04
2018-09-29T06:07:57.674Z,11.10
2018-09-29T06:10:27.243Z,11.10
2018-09-29T06:12:56.679Z,11.25
2018-09-29T06:15:26.471Z,11.40
2018-09-29T06:17:56.445Z,11.38
2018-09-29T06:20:25.490Z,11.41
2018-09-29T06:22:54.674Z,11.73
2018-09-29T06:25:24.219Z,11.99
2018-09-29T06:27:53.639Z,12.20
2018-09-29T06:30:22.651Z,11.99
2018-09-29T06:32:51.738Z,12.07
2018-09-29T06:35:20.907Z,12.05
2018-09-29T06:37:51.235Z,12.53
2018-09-29T06:40:20.303Z,12.66
2018-09-29T06:42:49.676Z,12.89
2018-09-29T06:45:20.898Z,13.17
2018-09-29T06:47:50.197Z,13.05
2018-09-29T06:50:19.809Z,12.76
2018-09-29T06:52:49.259Z,12.58
2018-09-29T06:55:19.912Z,12.21
2018-09-29T06:57:49.144Z,12.59
2018-09-29T07:00:19.130Z,12.53
2018-09-29T07:02:48.900Z,11.94
2018-09-29T07:05:18.294Z,11.95
2018-09-29T07:07:48.847Z,12.06
2018-09-29T07:10:20.443Z,12.18
2018-09-29T07:12:49.556Z,12.39
2018-09-29T07:15:19.074Z,12.45
2018-09-29T07:17:49.112Z,12.88
2018-09-29T07:20:18.575Z,13.34
2018-09-29T07:22:48.681Z,13.66
2018-09-29T07:25:18.043Z,13.37
2018-09-29T07:27:48.561Z,13.33
2018-09-29T07:30:17.655Z,13.83
2018-09-29T07:32:48.818Z,13.81
2018-09-29T07:35:18.325Z,14.09
2018-09-29T07:37:47.516Z,14.00
2018-09-29T07:40:17.314Z,13.99
2018-09-29T07:42:47.241Z,13.81
2018-09-29T07:45:16.765Z,13.73
2018-09-29T07:47:45.793Z,13.81
2018-09-29T07:50:15.143Z,14.20
2018-09-29T07:52:44.129Z,14.10
2018-09-29T07:55:13.522Z,14.37
2018-09-29T07:57:42.498Z,14.27
2018-09-29T08:00:12.116Z,14.34
2018-09-29T08:02:41.190Z,14.65
2018-09-29T08:05:10.241Z,14.70
2018-09-29T08:07:39.324Z,14.89
2018-09-29T08:10:08.471Z,15.30
2018-09-29T08:12:37.522Z,14.87
2018-09-29T08:15:06.737Z,15.41
2018-09-29T08:17:35.749Z,14.61
2018-09-29T08:20:04.948Z,15.25
2018-09-29T08:22:34.506Z,15.77
2018-09-29T08:25:03.623Z,15.07
2018-09-29T08:27:32.681Z,15.12
2018-09-29T08:30:01.733Z,15.59
2018-09-29T08:32:30.924Z,15.43
2018-09-29T08:34:59.960Z,15.32
2018-09-29T08:37:29.078Z,15.35
2018-09-29T08:39:58.131Z,16.26
2018-09-29T08:42:27.214Z,16.16
2018-09-29T08:44:56.252Z,15.46
2018-09-29T08:47:25.369Z,14.92
2018-09-29T08:49:54.561Z,15.50
2018-09-29T08:52:24.765Z,15.68
2018-09-29T08:54:53.745Z,15.37
2018-09-29T08:57:23.503Z,15.33
2018-09-29T08:59:54.340Z,15.64
2018-09-29T09:02:24.118Z,15.69
2018-09-29T09:04:53.600Z,15.89
2018-09-29T09:07:22.841Z,15.76
2018-09-29T09:09:52.111Z,15.25
2018-09-29T09:12:21.162Z,15.12
2018-09-29T09:14:51.895Z,16.36
2018-09-29T09:17:22.048Z,15.99
2018-09-29T09:19:51.134Z,15.71
2018-09-29T09:22:20.183Z,15.83
2018-09-29T09:24:49.357Z,15.77
2018-09-29T09:27:18.462Z,15.99
2018-09-29T09:29:47.660Z,16.26
2018-09-29T09:32:16.944Z,16.74
2018-09-29T09:34:46.114Z,15.76
2018-09-29T09:37:15.194Z,16.28
2018-09-29T09:39:44.260Z,16.36
2018-09-29T09:42:14.194Z,16.56
2018-09-29T09:44:43.208Z,15.92
2018-09-29T09:47:12.321Z,15.59
2018-09-29T09:49:41.431Z,16.70
2018-09-29T09:52:10.737Z,15.67
2018-09-29T09:54:39.845Z,16.54
2018-09-29T09:57:08.993Z,16.88
2018-09-29T09:59:38.122Z,16.33
2018-09-29T10:02:12.529Z,15.91
2018-09-29T10:04:41.598Z,16.09
2018-09-29T10:07:10.726Z,16.91
2018-09-29T10:09:39.940Z,17.08
2018-09-29T10:12:09.001Z,15.85
2018-09-29T10:14:38.094Z,16.93
2018-09-29T10:17:07.244Z,17.91
2018-09-29T10:19:36.390Z,18.09
2018-09-29T10:22:05.483Z,16.72
2018-09-29T10:24:34.996Z,17.24
2018-09-29T10:27:04.081Z,16.53
2018-09-29T10:29:34.198Z,17.47
2018-09-29T10:32:03.335Z,17.33
2018-09-29T10:34:32.377Z,17.65
2018-09-29T10:37:02.217Z,16.92
2018-09-29T10:39:31.306Z,16.54
2018-09-29T10:42:00.362Z,16.40
2018-09-29T10:44:29.431Z,16.79
2018-09-29T10:46:58.565Z,16.73
2018-09-29T10:49:27.654Z,17.30
2018-09-29T10:51:56.775Z,17.29
2018-09-29T10:54:26.674Z,17.11
2018-09-29T10:56:55.951Z,17.35
2018-09-29T10:59:25.054Z,17.96
2018-09-29T11:01:54.291Z,17.57
2018-09-29T11:04:23.305Z,17.35
2018-09-29T11:06:52.484Z,17.29
2018-09-29T11:09:21.576Z,16.62
2018-09-29T11:11:50.696Z,17.35
2018-09-29T11:14:19.863Z,16.91
2018-09-29T11:16:48.977Z,16.79
2018-09-29T11:19:18.949Z,16.79
2018-09-29T11:21:48.033Z,17.72
2018-09-29T11:24:17.086Z,16.93
2018-09-29T11:26:50.508Z,17.39
2018-09-29T11:29:19.735Z,17.30
2018-09-29T11:31:48.879Z,17.56
2018-09-29T11:34:17.901Z,18.05
2018-09-29T11:36:47.023Z,17.43
2018-09-29T11:39:16.015Z,17.35
2018-09-29T11:41:45.153Z,17.61
2018-09-29T11:44:14.455Z,17.32
2018-09-29T11:46:43.489Z,17.58
2018-09-29T11:49:12.730Z,17.56
2018-09-29T11:51:42.011Z,17.24
2018-09-29T11:54:11.102Z,17.11
2018-09-29T11:56:40.127Z,17.80
2018-09-29T11:59:09.236Z,18.07
2018-09-29T12:01:38.342Z,17.95
2018-09-29T12:04:07.424Z,17.75
2018-09-29T12:06:36.473Z,17.71
2018-09-29T12:09:09.004Z,18.10
2018-09-29T12:11:38.131Z,18.06
2018-09-29T12:14:07.221Z,17.85
2018-09-29T12:16:36.394Z,17.52
2018-09-29T12:19:05.400Z,17.59
2018-09-29T12:21:34.479Z,17.46
2018-09-29T12:24:03.509Z,17.53
2018-09-29T12:26:33.122Z,17.73
2018-09-29T12:29:02.219Z,17.88
2018-09-29T12:31:31.204Z,17.47
2018-09-29T12:34:00.296Z,17.79
2018-09-29T12:36:29.365Z,17.89
2018-09-29T12:38:58.410Z,17.59
2018-09-29T12:41:27.445Z,17.31
2018-09-29T12:43:56.520Z,17.21
2018-09-29T12:46:25.551Z,17.69
2018-09-29T12:48:54.490Z,17.63
2018-09-29T12:51:23.660Z,17.50
2018-09-29T12:53:52.792Z,18.12
2018-09-29T12:56:21.929Z,17.80
2018-09-29T12:58:51.133Z,17.72
2018-09-29T13:01:20.128Z,17.73
2018-09-29T13:03:49.189Z,17.74
2018-09-29T13:06:18.407Z,18.44
2018-09-29T13:08:47.495Z,18.49
2018-09-29T13:11:16.562Z,18.25
2018-09-29T13:13:45.670Z,18.53
2018-09-29T13:16:14.781Z,18.41
2018-09-29T13:18:43.823Z,18.03
2018-09-29T13:21:12.889Z,17.63
2018-09-29T13:23:41.981Z,18.30
2018-09-29T13:26:11.075Z,17.62
2018-09-29T13:28:40.108Z,17.83
2018-09-29T13:31:09.414Z,18.14
2018-09-29T13:33:38.583Z,17.49
2018-09-29T13:36:09.245Z,17.63
2018-09-29T13:38:38.437Z,17.65
2018-09-29T13:41:07.494Z,17.47
2018-09-29T13:43:37.208Z,17.88
2018-09-29T13:46:06.423Z,17.81
2018-09-29T13:48:35.470Z,17.72
2018-09-29T13:51:04.568Z,17.73
2018-09-29T13:53:33.759Z,17.60
2018-09-29T13:56:03.338Z,17.40
2018-09-29T13:58:32.441Z,17.50
2018-09-29T14:01:01.716Z,17.40
2018-09-29T14:03:30.915Z,17.69
2018-09-29T14:06:00.324Z,17.68
2018-09-29T14:08:29.427Z,17.61
2018-09-29T14:10:59.584Z,17.58
2018-09-29T14:13:28.570Z,17.56
2018-09-29T14:15:57.642Z,17.36
2018-09-29T14:18:26.636Z,17.54
2018-09-29T14:20:55.649Z,17.80
2018-09-29T14:23:24.670Z,17.60
2018-09-29T14:25:53.882Z,17.39
2018-09-29T14:28:23.144Z,17.63
2018-09-29T14:30:52.315Z,17.42
2018-09-29T14:33:21.413Z,17.48
2018-09-29T14:35:50.434Z,17.62
2018-09-29T14:38:19.558Z,17.32
2018-09-29T14:40:48.754Z,17.26
2018-09-29T14:43:17.841Z,17.34
2018-09-29T14:45:46.840Z,17.23
2018-09-29T14:48:17.197Z,17.18
2018-09-29T14:50:46.305Z,16.88
2018-09-29T14:53:16.045Z,16.54
2018-09-29T14:55:46.255Z,16.87
2018-09-29T14:58:15.371Z,16.98
2018-09-29T15:00:44.961Z,16.70
2018-09-29T15:03:14.237Z,16.60
2018-09-29T15:05:43.273Z,16.50
2018-09-29T15:08:13.328Z,16.37
2018-09-29T15:10:42.329Z,16.18
2018-09-29T15:13:11.452Z,16.18
2018-09-29T15:15:40.466Z,16.02
2018-09-29T15:18:10.383Z,15.89
2018-09-29T15:20:39.487Z,15.90
2018-09-29T15:23:08.549Z,15.75
2018-09-29T15:25:37.637Z,15.73
2018-09-29T15:28:07.040Z,15.63
2018-09-29T15:30:36.112Z,15.59
2018-09-29T15:33:05.219Z,15.66
2018-09-29T15:35:34.326Z,15.58
2018-09-29T15:38:03.348Z,15.38
2018-09-29T15:40:32.403Z,15.16
2018-09-29T15:43:03.496Z,15.14
2018-09-29T15:45:32.570Z,15.03
2018-09-29T15:48:01.776Z,14.90
2018-09-29T15:50:30.846Z,15.00
2018-09-29T15:52:59.995Z,15.07
2018-09-29T15:55:29.416Z,15.07
2018-09-29T15:57:58.482Z,14.89
2018-09-29T16:00:27.547Z,14.74
2018-09-29T16:02:56.611Z,14.51
2018-09-29T16:05:25.714Z,14.55
2018-09-29T16:07:54.728Z,14.49
2018-09-29T16:10:23.834Z,14.33
2018-09-29T16:12:53.037Z,14.18
2018-09-29T16:15:22.090Z,14.17
2018-09-29T16:17:51.292Z,14.02
2018-09-29T16:20:20.329Z,13.80
2018-09-29T16:22:49.367Z,13.81
2018-09-29T16:25:18.487Z,13.65
2018-09-29T16:27:47.538Z,13.60
2018-09-29T16:30:16.569Z,13.33
2018-09-29T16:32:45.799Z,13.22
2018-09-29T16:35:14.943Z,12.95
2018-09-29T16:37:44.065Z,12.99
2018-09-29T16:40:13.248Z,12.89
2018-09-29T16:42:42.324Z,12.83
2018-09-29T16:45:12.001Z,12.80
2018-09-29T16:47:41.042Z,12.59
2018-09-29T16:50:10.238Z,12.57
2018-09-29T16:52:39.269Z,12.52
2018-09-29T16:55:08.369Z,12.30
2018-09-29T16:57:37.447Z,12.16
2018-09-29T17:00:06.668Z,12.24
2018-09-29T17:02:35.684Z,12.30
2018-09-29T17:05:04.839Z,12.51
2018-09-29T17:07:33.897Z,12.46
2018-09-29T17:10:03.009Z,12.36
2018-09-29T17:12:32.340Z,12.14
2018-09-29T17:15:01.423Z,11.87
2018-09-29T17:17:30.988Z,11.64
2018-09-29T17:20:00.413Z,11.56
2018-09-29T17:22:31.346Z,11.61
2018-09-29T17:25:00.996Z,11.62
2018-09-29T17:27:30.320Z,11.55
2018-09-29T17:29:59.558Z,11.65
2018-09-29T17:32:28.994Z,11.64
2018-09-29T17:34:58.169Z,11.55
2018-09-29T17:37:27.474Z,11.45
2018-09-29T17:39:57.439Z,11.38
2018-09-29T17:42:26.712Z,11.55
2018-09-29T17:44:55.777Z,11.44
2018-09-29T17:47:24.832Z,11.35
2018-09-29T17:49:53.940Z,11.22
2018-09-29T17:52:23.296Z,11.21
2018-09-29T17:54:52.377Z,11.14
2018-09-29T17:57:21.705Z,10.92
2018-09-29T17:59:50.852Z,10.91
2018-09-29T18:02:19.938Z,10.97
2018-09-29T18:04:49.020Z,10.62
2018-09-29T18:07:18.319Z,10.58
2018-09-29T18:09:48.626Z,10.49
2018-09-29T18:12:18.628Z,10.24
2018-09-29T18:14:47.877Z,10.24
2018-09-29T18:17:16.939Z,10.35
2018-09-29T18:19:46.059Z,10.19
2018-09-29T18:22:15.802Z,10.24
2018-09-29T18:24:44.903Z,10.15
2018-09-29T18:27:13.985Z,10.02
2018-09-29T18:29:43.900Z,9.99
2018-09-29T18:32:13.118Z,10.12
2018-09-29T18:34:43.071Z,10.20
2018-09-29T18:37:12.318Z,10.11
2018-09-29T18:42:21.203Z,9.84
2018-09-29T18:44:50.283Z,9.73
2018-09-29T18:47:19.438Z,9.73
2018-09-29T18:49:48.446Z,9.86
2018-09-29T18:52:17.527Z,10.00
2018-09-29T18:54:46.707Z,9.92
2018-09-29T18:57:15.775Z,10.05
2018-09-29T18:59:45.311Z,9.88
2018-09-29T19:02:14.825Z,9.60
2018-09-29T19:04:43.898Z,9.71
2018-09-29T19:07:13.181Z,9.49
2018-09-29T19:09:42.286Z,9.40
2018-09-29T19:12:11.511Z,9.40
2018-09-29T19:14:41.217Z,9.35
2018-09-29T19:17:10.420Z,9.33
2018-09-29T19:19:39.438Z,9.21
2018-09-29T19:22:08.589Z,9.21
2018-09-29T19:24:37.635Z,9.45
2018-09-29T19:27:06.737Z,9.53
2018-09-29T19:29:35.902Z,9.26
2018-09-29T19:32:05.722Z,9.27
2018-09-29T19:34:34.819Z,9.14
2018-09-29T19:37:04.030Z,9.10
2018-09-29T19:39:33.559Z,8.77
2018-09-29T19:42:02.872Z,8.69
2018-09-29T19:44:32.387Z,8.91
2018-09-29T19:47:01.792Z,8.88
2018-09-29T19:49:31.120Z,8.85
2018-09-29T19:52:00.288Z,8.89
2018-09-29T19:54:29.492Z,8.99
2018-09-29T19:57:00.283Z,8.85
2018-09-29T19:59:29.440Z,8.78
2018-09-29T20:01:58.732Z,8.77
2018-09-29T20:04:28.948Z,8.75
2018-09-29T20:06:58.269Z,8.64
2018-09-29T20:09:28.479Z,8.63
2018-09-29T20:11:58.475Z,8.58
2018-09-29T20:14:27.553Z,8.53
2018-09-29T20:16:56.651Z,8.68
2018-09-29T20:19:25.989Z,8.47
2018-09-29T20:21:55.304Z,8.47
2018-09-29T20:24:24.402Z,8.39
2018-09-29T20:26:53.488Z,8.32
2018-09-29T20:29:22.619Z,8.50
2018-09-29T20:31:51.755Z,8.27
2018-09-29T20:34:20.802Z,8.18
2018-09-29T20:36:49.923Z,8.21
2018-09-29T20:39:19.021Z,8.09
2018-09-29T20:41:48.155Z,7.91
2018-09-29T20:44:17.263Z,7.54
2018-09-29T20:46:47.153Z,7.44
2018-09-29T20:49:16.286Z,7.62
2018-09-29T20:51:45.296Z,7.64
2018-09-29T20:54:14.632Z,7.76
2018-09-29T20:56:43.728Z,7.82
2018-09-29T20:59:12.768Z,7.89
2018-09-29T21:01:42.059Z,7.96
2018-09-29T21:04:11.105Z,7.70
2018-09-29T21:06:40.386Z,7.64
2018-09-29T21:09:09.889Z,7.73
2018-09-29T21:11:38.928Z,7.70
2018-09-29T21:14:08.058Z,7.67
2018-09-29T21:16:37.078Z,7.61
2018-09-29T21:19:06.135Z,7.49
2018-09-29T21:21:35.422Z,7.39
2018-09-29T21:24:04.526Z,7.54
2018-09-29T21:26:33.596Z,7.48
2018-09-29T21:29:02.847Z,7.39
2018-09-29T21:31:31.899Z,7.31
2018-09-29T21:34:00.893Z,7.11
2018-09-29T21:36:30.057Z,6.94
2018-09-29T21:38:59.075Z,7.10
2018-09-29T21:41:28.271Z,7.10
2018-09-29T21:43:57.329Z,7.14
2018-09-29T21:46:26.354Z,7.25
2018-09-29T21:48:56.244Z,7.14
2018-09-29T21:51:25.362Z,7.08
2018-09-29T21:53:54.717Z,7.11
2018-09-29T21:56:23.717Z,7.06
2018-09-29T21:58:52.763Z,7.13
2018-09-29T22:01:26.979Z,7.00
2018-09-29T22:03:56.032Z,7.04
2018-09-29T22:06:25.203Z,6.84
2018-09-29T22:08:54.426Z,6.73
2018-09-29T22:11:23.575Z,6.57
2018-09-29T22:13:53.137Z,6.58
2018-09-29T22:16:22.236Z,6.57
2018-09-29T22:18:51.330Z,6.60
2018-09-29T22:21:20.459Z,6.60
2018-09-29T22:23:49.433Z,6.49
2018-09-29T22:26:18.450Z,6.58
2018-09-29T22:28:47.494Z,6.54
2018-09-29T22:31:16.575Z,6.49
2018-09-29T22:33:45.769Z,6.46
2018-09-29T22:36:14.830Z,6.41
2018-09-29T22:38:43.910Z,6.45
2018-09-29T22:41:13.169Z,6.56
2018-09-29T22:43:42.257Z,6.61
2018-09-29T22:46:11.261Z,6.64
2018-09-29T22:48:40.385Z,6.72
2018-09-29T22:51:09.421Z,6.68
2018-09-29T22:53:38.406Z,6.38
2018-09-29T22:56:07.441Z,6.40
2018-09-29T22:58:36.574Z,6.38
2018-09-29T23:01:05.591Z,6.37
2018-09-29T23:03:34.643Z,6.37
2018-09-29T23:06:03.703Z,6.19
2018-09-29T23:08:32.705Z,6.24
2018-09-29T23:11:01.739Z,6.34
2018-09-29T23:13:30.867Z,6.34
2018-09-29T23:15:59.941Z,6.37
2018-09-29T23:18:28.950Z,6.18
2018-09-29T23:20:58.016Z,6.08
2018-09-29T23:23:27.162Z,6.00
2018-09-29T23:25:56.273Z,5.98
2018-09-29T23:28:25.331Z,6.12
2018-09-29T23:30:54.415Z,6.15
2018-09-29T23:33:23.433Z,6.21
2018-09-29T23:35:52.592Z,6.19
2018-09-29T23:38:21.666Z,6.12
2018-09-29T23:40:50.701Z,6.16
2018-09-29T23:43:19.883Z,6.15
2018-09-29T23:45:48.878Z,6.08
2018-09-29T23:48:17.981Z,6.01
2018-09-29T23:50:47.001Z,6.02
2018-09-29T23:53:15.961Z,5.98
2018-09-29T23:55:45.014Z,6.02
2018-09-29T23:58:14.067Z,6.12
